2F6 weather

Skiatook Municipal Airport
Skiatook, Oklahoma, United States

Public forecast

Using degrees Fahrenheit for public forecast. Weather courtesy of forecast.io.

METAR (pilot weather report)

Closest report is Tulsa International Airport, 11.1 nm (20.6 km) SSE. Retrieved 2019/01/17 17:11 UTC (42 minutes ago):

KTUL 171711Z 32009KT 10SM OVC010 07/04 A3016 RMK AO2 T00670044 $

TAF (pilot weather forecast)

Closest forecast is Tulsa International Airport, 11.1 nm (20.6 km) SSE. Retrieved 2019/01/17 12:34 UTC (5 hours ago):

TAF KTUL 171131Z 1712/1812 33008KT 4SM BR BKN004 OVC007 FM171500 36004KT P6SM OVC007 FM171800 34006KT P6SM OVC015 FM172100 13004KT P6SM SCT250